Terminal Aerodrome Forecast
Issued by NWS

Home | Current Version | Previous Version | Text Only | Print | Product List | Glossary On
Versions: 1 2 3 4 5 6 7 8 9 10 11 12 13 14 15 16 17 18 19 20 21 22 23 24
000
FTUS41 KBGM 251900 AAA
TAFITH
TAF AMD
KITH 251958Z 2520/2618 33009KT P6SM -SHSN OVC022
      TEMPO 2520/2522 OVC015
     FM260300 36005KT P6SM OVC100
     FM260900 07005KT P6SM OVC040
     FM261300 07006KT 2SM -SN OVC025
      TEMPO 2614/2618 1SM -SN OVC007=

USA.gov is the U.S. government's official web portal to all federal, state and local government web resources and services.